Clackamas, OR

9:58 AM PST on December 25, 2014 (GMT -0800)
Sunrise Heights | Change Station
CLOSE
Current Station
Personal Weather Station
Location: Happy Valley, OR
Elevation: 525 ft
Nearby Weather Stations

Elev 525 ft 45.43 °N, 122.50 °W | Updated 47 seconds ago

Overcast
Overcast
43.4 °F
Feels Like 43 °F
N
0.0
Wind Variable Wind from SW
Gusts 1.0 mph

Today
High -- | Low -- °F
--% Chance of Precip.
Yesterday
High -- | Low -- °F
Precip. -- in
7:48 AM 4:32 PM
Waxing Crescent, 18% visible
Pressure 30.24 in
Visibility 10.0 miles
Clouds Few 3600 ft
Scattered Clouds 6000 ft
Overcast 7500 ft
Windchill 43 °F
Dew Point 42 °F
Humidity 96%
Rainfall 0.14 in
Snow Depth Not available.
UV 0 out of 12
Pollen .50 out of 12
Air Quality Not available.
Flu Activity Not available.
METAR KTTD 251753Z 00000KT 10SM FEW036 SCT060 OVC075 07/04 A3024 RMK AO2 SLP238 60007 T00670044 10067 20061 52020

More Conditions Fewer Conditions

Pressure 30.24 in
Visibility 10.0 miles
Clouds Few 3600 ft
Scattered Clouds 6000 ft
Overcast 7500 ft
Windchill 43 °F
Dew Point 42 °F
Humidity 96%
Rainfall 0.14 in
Snow Depth Not available.
UV 0 out of 12
Pollen .50 out of 12
Air Quality Not available.
Flu Activity Not available.
METAR KTTD 251753Z 00000KT 10SM FEW036 SCT060 OVC075 07/04 A3024 RMK AO2 SLP238 60007 T00670044 10067 20061 52020

More Conditions Fewer Conditions

10-Day Weather Forecast

Almanac

Astronomy

Dec. 25, 2014 Rise Set
Actual Time
Civil Twilight
Nautical Twilight
Astronomical Twilight
Moon
Length of Visible Light
Length of Day
Tomorrow will be .
, % of the Moon is Illuminated

Today's Extremes

State Highs State Lows

Community

WunderPhotos

Upload Photos

1,780,351 photos uploaded!

WunderBlogs® & News

Nearby

Air Quality

  Air Quality AQ Index Pollutant
Not available.

Snow Depth

Station Depth Elevation

Earthquake Activity

City Distance Mag. Time & Date
Minimum magnitude displayed is 2.5.

Coastal Water Temperatures

Place Temperature

Nearby Weather Stations